• Join FlightAware (Why Join?)
  • Login
  • US Flag 
05:38AM EDT


 

Airport Tracker/Info


-or-


 

Live Flight TrackerFlight Track Log ✈ GJS6221 ✈ 03-May-2013 ✈ KBTV - KLGA

Flight Track Log - Related Links

Times and Time Zones

All times are in EDT time to prevent confusion due to time zone crossing. See the GJS6221 flight status page for this flight to view local times or setup timezone preferences in your user account.

Time Position Orientation Groundspeed Altitude Reporting Facility
EDT Latitude Longitude Course Direction KTS MPH feet Rate Location/Type
03:00PM 44.4456 -73.3183 195° South 266 306 5,800  Level Boston Center
03:01PM 44.3744 -73.3492 197° South 274 315 8,300 2,460 Climbing Boston Center
03:02PM 44.2931 -73.3711 191° South 284 327 10,800 2,160 Climbing Boston Center
03:03PM 44.2031 -73.3958 191° South 311 358 12,700 1,860 Climbing Boston Center
03:04PM 43.8884 -73.3710 195° South  Level FlightAware Approximate
03:04PM 44.1072 -73.4231 192° South 349 402 14,600  Level Boston Center
03:05PM 43.7918 -73.4075 195° South  Level FlightAware Approximate
03:05PM 44.0025 -73.4561 193° South 370 426 16,500  Level Boston Center
03:06PM 43.9067 -73.4833 192° South 391 450 18,100 1,740 Climbing Boston Center
03:07PM 43.7958 -73.5158 192° South 400 460 20,000 1,860 Climbing Boston Center
03:08PM 43.6831 -73.5453 191° South 413 475 21,900 960 Climbing Boston Center
03:09PM 43.5533 -73.5803 191° South 418 481 22,000  Climbing Boston Center
03:10PM 43.4239 -73.6150 191° South 451 519 22,000  Level Boston Center
03:11PM 43.2944 -73.6497 191° South 465 535 22,000  Level Boston Center
03:12PM 43.1667 -73.6869 192° South 476 548 22,000  Level Boston Center
03:13PM 43.0350 -73.7269 193° South 481 554 22,000  Level Boston Center
03:14PM 42.9033 -73.7639 192° South 481 554 22,000  Level Boston Center
03:15PM 42.7800 -73.7978 191° South 481 554 22,000  Level Boston Center
03:16PM 42.6489 -73.7836 175° South 462 532 22,000  Level Boston Center
03:17PM 42.4969 -73.7550 172° South 462 532 22,000  Level Boston Center
03:18PM 42.3703 -73.7272 171° South 462 532 22,000 -720 Level Boston Center
03:19PM 42.2600 -73.6969 169° South 461 531 20,600 -1,800 Descending Boston Center
03:20PM 42.1247 -73.6886 177° South 455 524 18,400 -1,320 Descending Boston Center
03:21PM 42.0200 -73.7200 193° South 432 497 18,000 -240 Descending Boston Center
03:22PM 41.8883 -73.7564 192° South 439 505 18,000  Level Boston Center
03:23PM 41.7775 -73.7903 193° South 450 518 18,000 -1,620 Level Boston Center
03:25PM 41.5500 -73.8500 191° South 389 448 13,400 -2,220 Descending New York TRACON
03:26PM 41.4667 -73.8833 197° South 318 366 11,600 -1,800 Descending New York TRACON
03:27PM 41.3833 -73.8333 156° South 281 323 9,900 -1,260 Descending New York TRACON
03:28PM 41.3167 -73.7833 151° Southeast 271 312 9,100 -480 Descending New York TRACON
03:29PM 41.2667 -73.7333 143° Southeast 270 311 9,100  Level New York TRACON
03:30PM 41.2000 -73.6667 143° Southeast 272 313 9,100 -720 Level New York TRACON
03:31PM 41.1333 -73.6167 151° Southeast 273 314 7,700 -1,500 Descending New York TRACON
03:32PM 41.0667 -73.6333 191° South 270 311 6,100 -1,560 Descending New York TRACON
03:33PM 41.0167 -73.6833 217° Southwest 238 274 4,800 -1,440 Descending New York TRACON
03:34PM 40.9500 -73.7333 210° Southwest 234 269 3,300 -1,140 Descending New York TRACON
03:35PM 40.9000 -73.7667 207° Southwest 210 242 2,500 -720 Descending New York TRACON
03:36PM 40.8667 -73.8000 217° Southwest 180 207 2,000 -720 Descending New York TRACON
03:37PM 40.8333 -73.8333 217° Southwest 146 168 1,100 -780 Descending New York TRACON
03:38PM 40.8000 -73.8667 217° Southwest 131 151 400 -720 Descending New York TRACON
03:40PM 40.7772 -73.8726 180° South  Level Estimated
03:47PM 40.7772 -73.8726 180° South  Level Estimated
03:48PM 40.7772 -73.8726 180° South  Level Estimated